createdAt,value
2023-06-09T00:01:28.836Z,100631.47
2023-06-09T00:03:56.656Z,100631.56
2023-06-09T00:06:24.879Z,100629.38
2023-06-09T00:08:51.828Z,100632.22
2023-06-09T00:11:19.603Z,100635.81
2023-06-09T00:13:46.449Z,100641.97
2023-06-09T00:16:12.970Z,100629.81
2023-06-09T00:18:41.252Z,100626.03
2023-06-09T00:21:07.920Z,100629.28
2023-06-09T00:23:35.205Z,100628.81
2023-06-09T00:26:03.482Z,100624.59
2023-06-09T00:28:30.013Z,100626.13
2023-06-09T00:30:56.750Z,100615.25
2023-06-09T00:33:23.224Z,100623.97
2023-06-09T00:35:50.431Z,100617.50
2023-06-09T00:38:17.019Z,100619.69
2023-06-09T00:40:43.568Z,100611.34
2023-06-09T00:43:10.097Z,100607.50
2023-06-09T00:45:36.595Z,100596.84
2023-06-09T00:48:03.387Z,100598.78
2023-06-09T00:50:31.102Z,100600.75
2023-06-09T00:52:59.310Z,100601.06
2023-06-09T00:55:27.368Z,100602.59
2023-06-09T00:57:56.320Z,100601.63
2023-06-09T01:00:27.614Z,100599.44
2023-06-09T01:02:58.070Z,100600.66
2023-06-09T01:05:24.755Z,100606.81
2023-06-09T01:07:56.765Z,100610.06
2023-06-09T01:10:29.907Z,100607.19
2023-06-09T01:13:10.639Z,100600.09
2023-06-09T01:15:44.434Z,100608.53
2023-06-09T01:18:14.431Z,100609.63
2023-06-09T01:20:54.270Z,100615.81
2023-06-09T01:23:32.130Z,100620.09
2023-06-09T01:26:00.209Z,100614.44
2023-06-09T01:28:29.312Z,100601.97
2023-06-09T01:30:57.630Z,100595.22
2023-06-09T01:33:25.942Z,100603.41
2023-06-09T01:35:54.351Z,100612.19
2023-06-09T01:38:22.944Z,100600.63
2023-06-09T01:40:50.158Z,100599.44
2023-06-09T01:43:16.836Z,100605.91
2023-06-09T01:45:43.493Z,100617.38
2023-06-09T01:48:32.431Z,100612.84
2023-06-09T01:51:02.961Z,100621.56
2023-06-09T01:53:39.666Z,100621.50
2023-06-09T01:56:21.038Z,100628.97
2023-06-09T01:58:50.836Z,100626.47
2023-06-09T02:01:18.810Z,100629.19
2023-06-09T02:03:47.549Z,100633.47
2023-06-09T02:06:16.213Z,100629.84
2023-06-09T02:08:43.895Z,100630.09
2023-06-09T02:11:11.632Z,100624.81
2023-06-09T02:13:38.924Z,100624.81
2023-06-09T02:16:05.766Z,100624.38
2023-06-09T02:18:33.371Z,100619.38
2023-06-09T02:21:00.218Z,100613.84
2023-06-09T02:23:26.765Z,100617.22
2023-06-09T02:25:53.266Z,100621.38
2023-06-09T02:28:19.727Z,100616.72
2023-06-09T02:30:46.844Z,100612.28
2023-06-09T02:33:15.784Z,100616.88
2023-06-09T02:35:42.691Z,100614.50
2023-06-09T02:38:09.177Z,100606.22
2023-06-09T02:40:35.739Z,100616.06
2023-06-09T02:43:02.320Z,100616.34
2023-06-09T02:45:28.853Z,100616.31
2023-06-09T02:47:55.555Z,100611.00
2023-06-09T02:50:23.602Z,100613.34
2023-06-09T02:52:50.288Z,100612.50
2023-06-09T02:55:19.563Z,100608.06
2023-06-09T02:57:47.025Z,100615.22
2023-06-09T03:00:15.997Z,100608.22
2023-06-09T03:02:43.673Z,100611.50
2023-06-09T03:05:10.454Z,100612.72
2023-06-09T03:07:37.603Z,100605.09
2023-06-09T03:10:07.531Z,100602.44
2023-06-09T03:12:34.057Z,100610.56
2023-06-09T03:15:00.582Z,100606.41
2023-06-09T03:17:28.083Z,100613.13
2023-06-09T03:19:54.730Z,100605.19
2023-06-09T03:22:21.762Z,100615.56
2023-06-09T03:24:49.148Z,100608.94
2023-06-09T03:27:16.237Z,100616.69
2023-06-09T03:29:42.781Z,100617.88
2023-06-09T03:32:09.282Z,100618.00
2023-06-09T03:34:35.978Z,100614.72
2023-06-09T03:37:04.171Z,100616.28
2023-06-09T03:39:30.668Z,100615.09
2023-06-09T03:41:58.196Z,100617.88
2023-06-09T03:44:24.751Z,100617.09
2023-06-09T03:46:51.318Z,100617.16
2023-06-09T03:49:17.845Z,100612.66
2023-06-09T03:51:44.545Z,100614.50
2023-06-09T03:54:11.038Z,100611.84
2023-06-09T03:56:37.503Z,100611.22
2023-06-09T03:59:04.134Z,100614.06
2023-06-09T04:01:31.812Z,100606.97
2023-06-09T04:03:58.574Z,100604.16
2023-06-09T04:06:25.211Z,100607.72
2023-06-09T04:08:52.964Z,100608.50
2023-06-09T04:11:19.673Z,100604.06
2023-06-09T04:13:49.368Z,100609.44
2023-06-09T04:16:19.151Z,100608.31
2023-06-09T04:18:46.082Z,100600.50
2023-06-09T04:21:13.463Z,100610.81
2023-06-09T04:23:41.282Z,100609.59
2023-06-09T04:26:14.693Z,100606.66
2023-06-09T04:28:41.555Z,100606.34
2023-06-09T04:31:09.895Z,100611.22
2023-06-09T04:33:37.265Z,100608.38
2023-06-09T04:36:07.552Z,100612.66
2023-06-09T04:38:34.461Z,100613.22
2023-06-09T04:41:04.793Z,100609.38
2023-06-09T04:43:33.799Z,100612.56
2023-06-09T04:46:00.990Z,100612.50
2023-06-09T04:48:30.426Z,100611.34
2023-06-09T04:50:58.148Z,100610.97
2023-06-09T04:53:27.256Z,100615.13
2023-06-09T04:55:55.126Z,100618.56
2023-06-09T04:58:21.793Z,100622.06
2023-06-09T05:00:48.877Z,100615.75
2023-06-09T05:03:18.756Z,100612.97
2023-06-09T05:05:45.617Z,100616.25
2023-06-09T05:08:12.519Z,100615.31
2023-06-09T05:10:39.002Z,100616.09
2023-06-09T05:13:06.042Z,100622.03
2023-06-09T05:15:32.623Z,100625.47
2023-06-09T05:18:00.023Z,100622.66
2023-06-09T05:20:26.850Z,100630.44
2023-06-09T05:22:53.450Z,100629.28
2023-06-09T05:25:20.298Z,100631.59
2023-06-09T05:27:46.875Z,100632.47
2023-06-09T05:30:13.513Z,100639.31
2023-06-09T05:32:40.105Z,100638.91
2023-06-09T05:35:06.973Z,100635.97
2023-06-09T05:37:33.562Z,100635.69
2023-06-09T05:40:00.137Z,100626.69
2023-06-09T05:42:26.645Z,100642.34
2023-06-09T05:44:53.139Z,100633.31
2023-06-09T05:47:19.659Z,100632.31
2023-06-09T05:49:46.253Z,100635.59
2023-06-09T05:52:12.700Z,100630.13
2023-06-09T05:54:39.202Z,100638.78
2023-06-09T05:57:06.326Z,100633.41
2023-06-09T05:59:34.334Z,100646.25
2023-06-09T06:02:02.209Z,100648.44
2023-06-09T06:04:29.142Z,100648.00
2023-06-09T06:06:56.359Z,100645.13
2023-06-09T06:09:23.110Z,100635.13
2023-06-09T06:11:49.730Z,100647.38
2023-06-09T06:14:16.252Z,100636.38
2023-06-09T06:16:42.792Z,100636.13
2023-06-09T06:19:13.889Z,100636.03
2023-06-09T06:21:45.019Z,100641.78
2023-06-09T06:24:12.084Z,100641.72
2023-06-09T06:26:38.565Z,100648.38
2023-06-09T06:29:05.161Z,100648.34
2023-06-09T06:31:32.302Z,100645.41
2023-06-09T06:33:59.570Z,100644.38
2023-06-09T06:36:27.525Z,100651.34
2023-06-09T06:38:54.190Z,100649.53
2023-06-09T06:41:21.312Z,100655.69
2023-06-09T06:43:51.070Z,100658.19
2023-06-09T06:46:18.642Z,100658.09
2023-06-09T06:48:45.584Z,100658.94
2023-06-09T06:51:12.227Z,100666.00
2023-06-09T06:53:39.192Z,100658.78
2023-06-09T06:56:06.326Z,100658.28
2023-06-09T06:58:33.080Z,100655.13
2023-06-09T07:00:59.755Z,100653.41
2023-06-09T07:03:27.095Z,100661.38
2023-06-09T07:05:54.784Z,100660.16
2023-06-09T07:08:21.693Z,100653.84
2023-06-09T07:10:48.210Z,100652.59
2023-06-09T07:13:15.730Z,100657.78
2023-06-09T07:15:42.224Z,100649.94
2023-06-09T07:18:08.828Z,100655.44
2023-06-09T07:20:35.508Z,100654.78
2023-06-09T07:23:02.102Z,100651.28
2023-06-09T07:25:28.535Z,100648.56
2023-06-09T07:27:55.043Z,100645.81
2023-06-09T07:30:22.203Z,100642.78
2023-06-09T07:32:48.903Z,100644.47
2023-06-09T07:35:15.461Z,100639.16
2023-06-09T07:37:43.573Z,100638.25
2023-06-09T07:40:19.004Z,100646.25
2023-06-09T07:42:47.804Z,100647.16
2023-06-09T07:45:14.696Z,100652.72
2023-06-09T07:47:41.647Z,100645.59
2023-06-09T07:50:10.020Z,100645.88
2023-06-09T07:52:38.485Z,100646.03
2023-06-09T07:55:08.149Z,100648.78
2023-06-09T07:57:38.376Z,100639.59
2023-06-09T08:00:06.167Z,100642.94
2023-06-09T08:02:33.775Z,100638.31
2023-06-09T08:05:00.599Z,100632.78
2023-06-09T08:07:30.210Z,100635.25
2023-06-09T08:09:56.996Z,100637.91
2023-06-09T08:12:23.527Z,100641.53
2023-06-09T08:14:50.147Z,100638.09
2023-06-09T08:17:16.650Z,100630.88
2023-06-09T08:19:43.147Z,100636.31
2023-06-09T08:22:09.656Z,100635.34
2023-06-09T08:24:36.196Z,100642.38
2023-06-09T08:27:03.899Z,100637.00
2023-06-09T08:29:30.500Z,100639.75
2023-06-09T08:31:57.021Z,100629.84
2023-06-09T08:34:23.559Z,100637.25
2023-06-09T08:36:50.452Z,100630.72
2023-06-09T08:39:16.947Z,100625.38
2023-06-09T08:41:47.336Z,100624.91
2023-06-09T08:44:16.457Z,100623.56
2023-06-09T08:46:46.941Z,100620.06
2023-06-09T08:49:15.217Z,100621.09
2023-06-09T08:51:44.179Z,100620.16
2023-06-09T08:54:14.528Z,100624.13
2023-06-09T08:56:41.641Z,100616.72
2023-06-09T08:59:08.320Z,100625.66
2023-06-09T09:01:37.197Z,100628.50
2023-06-09T09:04:05.829Z,100622.88
2023-06-09T09:06:34.535Z,100618.69
2023-06-09T09:09:01.179Z,100621.38
2023-06-09T09:11:28.237Z,100618.75
2023-06-09T09:13:54.831Z,100615.25
2023-06-09T09:16:21.542Z,100612.78
2023-06-09T09:18:48.686Z,100620.75
2023-06-09T09:21:23.003Z,100613.16
2023-06-09T09:24:05.460Z,100621.16
2023-06-09T09:26:32.869Z,100604.84
2023-06-09T09:29:07.881Z,100616.28
2023-06-09T09:31:37.574Z,100624.75
2023-06-09T09:34:04.262Z,100616.59
2023-06-09T09:36:31.029Z,100613.81
2023-06-09T09:39:06.229Z,100613.97
2023-06-09T09:41:32.741Z,100602.69
2023-06-09T09:43:59.224Z,100608.63
2023-06-09T09:46:26.162Z,100606.06
2023-06-09T09:48:53.250Z,100594.94
2023-06-09T09:51:24.110Z,100595.19
2023-06-09T09:53:53.518Z,100596.03
2023-06-09T09:56:24.938Z,100591.22
2023-06-09T09:58:53.764Z,100595.28
2023-06-09T10:01:25.713Z,100586.75
2023-06-09T10:03:54.697Z,100593.78
2023-06-09T10:06:28.680Z,100590.69
2023-06-09T10:08:56.921Z,100583.75
2023-06-09T10:11:29.789Z,100589.41
2023-06-09T10:13:56.411Z,100586.19
2023-06-09T10:16:24.442Z,100585.69
2023-06-09T10:18:51.960Z,100595.50
2023-06-09T10:21:22.506Z,100583.31
2023-06-09T10:23:49.549Z,100582.41
2023-06-09T10:26:16.620Z,100590.28
2023-06-09T10:28:43.099Z,100587.63
2023-06-09T10:31:12.714Z,100591.03
2023-06-09T10:33:44.648Z,100585.75
2023-06-09T10:36:11.655Z,100587.47
2023-06-09T10:38:46.749Z,100589.75
2023-06-09T10:41:32.034Z,100584.28
2023-06-09T10:44:20.185Z,100590.41
2023-06-09T10:46:49.440Z,100579.91
2023-06-09T10:49:25.856Z,100575.22
2023-06-09T10:51:56.379Z,100569.22
2023-06-09T10:54:27.012Z,100574.38
2023-06-09T10:56:57.358Z,100571.03
2023-06-09T10:59:32.189Z,100572.81
2023-06-09T11:02:05.453Z,100568.38
2023-06-09T11:04:47.803Z,100565.13
2023-06-09T11:07:16.746Z,100560.56
2023-06-09T11:09:52.302Z,100561.09
2023-06-09T11:12:28.434Z,100564.63
2023-06-09T11:15:01.221Z,100568.03
2023-06-09T11:17:35.079Z,100566.19
2023-06-09T11:20:11.186Z,100565.00
2023-06-09T11:22:53.503Z,100558.44
2023-06-09T11:25:20.254Z,100549.53
2023-06-09T11:28:06.886Z,100550.44
2023-06-09T11:30:33.666Z,100553.59
2023-06-09T11:33:02.681Z,100554.81
2023-06-09T11:35:29.216Z,100546.91
2023-06-09T11:38:02.942Z,100546.53
2023-06-09T11:40:34.835Z,100548.72
2023-06-09T11:43:02.984Z,100553.44
2023-06-09T11:45:33.575Z,100556.13
2023-06-09T11:48:01.662Z,100546.09
2023-06-09T11:50:37.434Z,100550.53
2023-06-09T11:53:06.209Z,100550.38
2023-06-09T11:55:32.731Z,100546.34
2023-06-09T11:58:00.641Z,100539.38
2023-06-09T12:00:29.250Z,100545.97
2023-06-09T12:02:59.444Z,100541.78
2023-06-09T12:05:29.902Z,100544.88
2023-06-09T12:07:56.926Z,100543.00
2023-06-09T12:10:27.692Z,100539.25
2023-06-09T12:12:56.544Z,100545.84
2023-06-09T12:15:24.879Z,100541.44
2023-06-09T12:17:53.390Z,100533.06
2023-06-09T12:20:20.154Z,100532.41
2023-06-09T12:22:46.810Z,100531.72
2023-06-09T12:25:31.822Z,100527.59
2023-06-09T12:28:15.234Z,100525.63
2023-06-09T12:30:50.199Z,100523.16
2023-06-09T12:33:28.878Z,100522.47
2023-06-09T12:36:06.538Z,100512.47
2023-06-09T12:38:38.886Z,100518.69
2023-06-09T12:41:13.287Z,100512.38
2023-06-09T12:44:00.088Z,100502.41
2023-06-09T12:46:39.193Z,100503.28
2023-06-09T12:49:07.696Z,100502.31
2023-06-09T12:51:40.028Z,100507.06
2023-06-09T12:54:08.959Z,100507.06
2023-06-09T12:56:35.468Z,100505.09
2023-06-09T12:59:03.586Z,100503.56
2023-06-09T13:01:32.546Z,100505.16
2023-06-09T13:03:59.408Z,100504.41
2023-06-09T13:06:26.306Z,100497.06
2023-06-09T13:08:52.889Z,100486.22
2023-06-09T13:11:19.394Z,100489.78
2023-06-09T13:13:45.914Z,100483.66
2023-06-09T13:16:12.456Z,100489.34
2023-06-09T13:18:40.738Z,100490.72
2023-06-09T13:21:07.506Z,100491.06
2023-06-09T13:23:34.157Z,100489.34
2023-06-09T13:26:01.060Z,100492.69
2023-06-09T13:28:27.796Z,100490.31
2023-06-09T13:30:54.482Z,100496.13
2023-06-09T13:33:21.062Z,100490.28
2023-06-09T13:35:47.603Z,100474.38
2023-06-09T13:38:15.582Z,100472.69
2023-06-09T13:40:46.390Z,100482.59
2023-06-09T13:43:17.610Z,100474.06
2023-06-09T13:45:44.400Z,100480.63
2023-06-09T13:48:11.383Z,100477.47
2023-06-09T13:50:38.053Z,100477.25
2023-06-09T13:53:04.990Z,100470.94
2023-06-09T13:55:31.745Z,100472.38
2023-06-09T13:57:58.333Z,100472.63
2023-06-09T14:00:24.966Z,100474.56
2023-06-09T14:02:51.706Z,100463.03
2023-06-09T14:05:18.595Z,100467.94
2023-06-09T14:07:48.367Z,100467.22
2023-06-09T14:10:15.888Z,100460.88
2023-06-09T14:12:46.710Z,100466.28
2023-06-09T14:15:21.919Z,100464.72
2023-06-09T14:17:55.177Z,100458.06
2023-06-09T14:20:23.136Z,100469.66
2023-06-09T14:22:53.085Z,100462.97
2023-06-09T14:25:22.427Z,100468.09
2023-06-09T14:27:50.932Z,100470.78
2023-06-09T14:30:19.358Z,100466.50
2023-06-09T14:32:49.554Z,100458.88
2023-06-09T14:35:23.439Z,100458.28
2023-06-09T14:37:52.174Z,100456.53
2023-06-09T14:40:18.764Z,100445.69
2023-06-09T14:42:49.087Z,100464.94
2023-06-09T14:45:21.668Z,100457.69
2023-06-09T14:47:59.626Z,100454.63
2023-06-09T14:50:35.954Z,100453.78
2023-06-09T14:53:03.736Z,100456.44
2023-06-09T14:55:33.395Z,100445.16
2023-06-09T14:58:02.212Z,100453.31
2023-06-09T15:00:30.192Z,100455.13
2023-06-09T15:03:11.919Z,100452.63
2023-06-09T15:05:38.805Z,100449.69
2023-06-09T15:08:06.637Z,100449.72
2023-06-09T15:10:40.107Z,100448.25
2023-06-09T15:13:06.827Z,100452.53
2023-06-09T15:15:34.263Z,100450.25
2023-06-09T15:18:06.800Z,100454.53
2023-06-09T15:20:43.316Z,100457.94
2023-06-09T15:23:11.749Z,100454.50
2023-06-09T15:25:41.007Z,100452.91
2023-06-09T15:28:28.361Z,100454.16
2023-06-09T15:30:55.165Z,100447.56
2023-06-09T15:33:23.118Z,100441.88
2023-06-09T15:35:54.451Z,100441.03
2023-06-09T15:38:25.110Z,100446.25
2023-06-09T15:40:53.538Z,100442.88
2023-06-09T15:43:22.129Z,100442.81
2023-06-09T15:45:53.038Z,100431.53
2023-06-09T15:48:21.056Z,100435.91
2023-06-09T15:50:48.533Z,100432.66
2023-06-09T15:53:20.592Z,100432.22
2023-06-09T15:55:48.440Z,100434.50
2023-06-09T15:58:16.281Z,100431.81
2023-06-09T16:00:43.838Z,100435.63
2023-06-09T16:03:10.457Z,100427.03
2023-06-09T16:05:39.035Z,100419.72
2023-06-09T16:08:07.834Z,100420.72
2023-06-09T16:10:37.431Z,100414.16
2023-06-09T16:13:07.421Z,100408.19
2023-06-09T16:15:39.027Z,100413.13
2023-06-09T16:18:08.142Z,100408.88
2023-06-09T16:20:36.345Z,100406.59
2023-06-09T16:23:04.804Z,100401.56
2023-06-09T16:25:32.933Z,100401.53
2023-06-09T16:28:01.039Z,100393.56
2023-06-09T16:30:29.593Z,100406.66
2023-06-09T16:32:56.274Z,100391.78
2023-06-09T16:35:22.869Z,100397.19
2023-06-09T16:37:51.015Z,100397.44
2023-06-09T16:40:18.432Z,100393.81
2023-06-09T16:42:44.963Z,100391.50
2023-06-09T16:45:11.773Z,100395.53
2023-06-09T16:47:38.481Z,100388.91
2023-06-09T16:50:05.542Z,100392.75
2023-06-09T16:52:32.040Z,100385.09
2023-06-09T16:54:58.551Z,100390.63
2023-06-09T16:57:25.018Z,100386.28
2023-06-09T16:59:52.737Z,100385.69
2023-06-09T17:02:21.692Z,100388.38
2023-06-09T17:04:48.528Z,100391.06
2023-06-09T17:07:15.085Z,100394.16
2023-06-09T17:09:41.654Z,100396.81
2023-06-09T17:12:08.699Z,100398.97
2023-06-09T17:14:35.323Z,100403.94
2023-06-09T17:17:01.791Z,100410.59
2023-06-09T17:19:28.304Z,100404.94
2023-06-09T17:21:54.780Z,100406.88
2023-06-09T17:24:21.439Z,100421.06
2023-06-09T17:26:48.034Z,100427.31
2023-06-09T17:29:15.106Z,100423.78
2023-06-09T17:31:41.746Z,100426.50
2023-06-09T17:34:09.417Z,100428.47
2023-06-09T17:36:36.059Z,100436.16
2023-06-09T17:39:03.089Z,100440.94
2023-06-09T17:41:29.618Z,100440.41
2023-06-09T17:43:56.201Z,100446.28
2023-06-09T17:46:22.849Z,100443.06
2023-06-09T17:48:49.441Z,100447.44
2023-06-09T17:51:17.586Z,100448.44
2023-06-09T17:53:44.464Z,100450.53
2023-06-09T17:56:11.113Z,100455.91
2023-06-09T17:58:38.259Z,100459.38
2023-06-09T18:01:04.815Z,100459.31
2023-06-09T18:03:31.442Z,100448.97
2023-06-09T18:05:57.973Z,100448.38
2023-06-09T18:08:24.513Z,100451.50
2023-06-09T18:10:50.976Z,100452.75
2023-06-09T18:13:17.685Z,100456.88
2023-06-09T18:15:45.204Z,100456.16
2023-06-09T18:18:12.052Z,100457.41
2023-06-09T18:20:38.651Z,100459.09
2023-06-09T18:23:05.265Z,100465.75
2023-06-09T18:25:32.860Z,100468.84
2023-06-09T18:28:02.086Z,100464.88
2023-06-09T18:30:29.561Z,100467.94
2023-06-09T18:32:56.143Z,100468.34
2023-06-09T18:35:22.642Z,100475.97
2023-06-09T18:37:49.119Z,100478.94
2023-06-09T18:40:15.735Z,100469.56
2023-06-09T18:42:42.279Z,100476.91
2023-06-09T18:45:09.686Z,100474.63
2023-06-09T18:47:36.897Z,100475.03
2023-06-09T18:50:03.810Z,100482.50
2023-06-09T18:52:33.049Z,100475.72
2023-06-09T18:54:59.571Z,100473.41
2023-06-09T18:57:27.764Z,100479.91
2023-06-09T18:59:54.315Z,100481.28
2023-06-09T19:02:21.163Z,100491.44
2023-06-09T19:04:51.517Z,100489.41
2023-06-09T19:07:33.170Z,100496.66
2023-06-09T19:10:00.905Z,100495.06
2023-06-09T19:12:27.765Z,100499.13
2023-06-09T19:14:54.238Z,100498.78
2023-06-09T19:17:21.328Z,100497.47
2023-06-09T19:19:47.860Z,100496.06
2023-06-09T19:22:14.387Z,100505.44
2023-06-09T19:24:43.443Z,100509.25
2023-06-09T19:27:10.117Z,100512.56
2023-06-09T19:29:36.661Z,100513.41
2023-06-09T19:32:10.455Z,100512.56
2023-06-09T19:34:37.364Z,100514.75
2023-06-09T19:37:05.627Z,100511.78
2023-06-09T19:39:32.142Z,100517.25
2023-06-09T19:41:58.718Z,100521.56
2023-06-09T19:44:25.243Z,100531.34
2023-06-09T19:46:51.843Z,100526.97
2023-06-09T19:49:18.462Z,100529.78
2023-06-09T19:51:45.205Z,100536.97
2023-06-09T19:54:11.954Z,100535.53
2023-06-09T19:56:45.929Z,100542.72
2023-06-09T19:59:13.988Z,100545.63
2023-06-09T20:01:40.587Z,100550.28
2023-06-09T20:04:07.120Z,100548.56
2023-06-09T20:06:33.634Z,100557.97
2023-06-09T20:09:00.363Z,100558.56
2023-06-09T20:11:26.870Z,100562.50
2023-06-09T20:13:53.918Z,100560.91
2023-06-09T20:16:20.803Z,100560.41
2023-06-09T20:18:47.342Z,100560.81
2023-06-09T20:21:13.834Z,100566.38
2023-06-09T20:23:43.119Z,100562.00
2023-06-09T20:26:10.291Z,100562.38
2023-06-09T20:28:37.711Z,100571.50
2023-06-09T20:31:08.871Z,100568.09
2023-06-09T20:33:40.865Z,100574.78
2023-06-09T20:36:07.800Z,100570.53
2023-06-09T20:38:34.662Z,100573.44
2023-06-09T20:41:01.786Z,100582.56
2023-06-09T20:43:29.005Z,100581.91
2023-06-09T20:46:02.239Z,100586.75
2023-06-09T20:48:29.585Z,100580.09
2023-06-09T20:50:56.180Z,100582.13
2023-06-09T20:53:22.937Z,100587.84
2023-06-09T20:55:49.954Z,100589.03
2023-06-09T20:58:16.739Z,100591.47
2023-06-09T21:00:43.321Z,100591.59
2023-06-09T21:03:17.129Z,100589.75
2023-06-09T21:05:44.341Z,100591.69
2023-06-09T21:08:10.847Z,100593.00
2023-06-09T21:10:38.107Z,100593.84
2023-06-09T21:13:04.700Z,100601.25
2023-06-09T21:15:35.234Z,100591.75
2023-06-09T21:18:02.444Z,100596.13
2023-06-09T21:20:33.760Z,100601.72
2023-06-09T21:23:01.285Z,100600.34
2023-06-09T21:25:32.664Z,100600.47
2023-06-09T21:28:06.610Z,100595.31
2023-06-09T21:30:33.572Z,100605.03
2023-06-09T21:33:01.813Z,100595.56
2023-06-09T21:35:28.507Z,100600.16
2023-06-09T21:37:56.940Z,100594.06
2023-06-09T21:40:23.550Z,100599.66
2023-06-09T21:42:50.144Z,100601.59
2023-06-09T21:45:16.698Z,100593.91
2023-06-09T21:47:43.395Z,100596.03
2023-06-09T21:50:10.509Z,100591.50
2023-06-09T21:52:37.065Z,100601.47
2023-06-09T21:55:05.473Z,100603.41
2023-06-09T21:57:32.331Z,100612.47
2023-06-09T21:59:58.968Z,100608.44
2023-06-09T22:02:26.259Z,100617.44
2023-06-09T22:04:53.084Z,100618.94
2023-06-09T22:07:19.723Z,100620.78
2023-06-09T22:09:46.270Z,100619.81
2023-06-09T22:12:17.345Z,100616.28
2023-06-09T22:14:44.852Z,100625.25
2023-06-09T22:17:11.657Z,100619.25
2023-06-09T22:19:38.339Z,100622.16
2023-06-09T22:22:06.062Z,100605.84
2023-06-09T22:24:32.574Z,100612.53
2023-06-09T22:27:01.450Z,100613.50
2023-06-09T22:29:28.233Z,100612.22
2023-06-09T22:31:54.782Z,100615.13
2023-06-09T22:34:21.318Z,100620.59
2023-06-09T22:36:48.031Z,100615.78
2023-06-09T22:39:14.721Z,100615.97
2023-06-09T22:41:41.482Z,100627.00
2023-06-09T22:44:08.184Z,100606.81
2023-06-09T22:46:35.153Z,100610.78
2023-06-09T22:49:04.288Z,100610.13
2023-06-09T22:51:30.986Z,100610.00
2023-06-09T22:54:02.149Z,100620.06
2023-06-09T22:56:28.670Z,100612.91
2023-06-09T22:58:55.195Z,100620.16
2023-06-09T23:01:22.040Z,100615.25
2023-06-09T23:03:52.226Z,100612.69
2023-06-09T23:06:20.178Z,100612.06
2023-06-09T23:08:46.730Z,100606.91
2023-06-09T23:11:14.604Z,100604.47
2023-06-09T23:13:41.400Z,100608.50
2023-06-09T23:16:09.616Z,100598.56
2023-06-09T23:18:36.512Z,100603.16
2023-06-09T23:21:03.315Z,100594.53
2023-06-09T23:23:33.759Z,100594.81
2023-06-09T23:26:01.610Z,100594.91
2023-06-09T23:28:28.161Z,100588.00
2023-06-09T23:30:55.512Z,100595.03
2023-06-09T23:33:25.957Z,100597.03
2023-06-09T23:35:53.843Z,100601.72
2023-06-09T23:38:20.442Z,100604.63
2023-06-09T23:40:47.091Z,100600.22
2023-06-09T23:43:13.650Z,100598.44
2023-06-09T23:45:40.306Z,100605.66
2023-06-09T23:48:07.133Z,100595.50
2023-06-09T23:50:33.870Z,100598.38
2023-06-09T23:53:00.459Z,100596.97
2023-06-09T23:55:26.990Z,100604.03
2023-06-09T23:57:53.504Z,100603.16
